Dirección General De Aeronáutica Civil

Dirección Meteorológica de Chile - Servicios Climáticos

Informe General de Control de Calidad de la Estación

Listado de niveles de control de calidad para algunos parámetros
Estación Salamanca (310026)
Fecha de Revisión de los datos :

Elementos

Registros Niveles de Control Total
Nivel 0 Nivel 1 Nivel 2 Nivel 3 Errores Porcentaje
01 Temperatura del Aire Seco 125.393 0 . 0 . 0 . 0 . 0 0.00 %
02 Temperatura de Rocío 114.505 0 . 0 . 0 . 0 . 0 0.00 %
03 Humedad Relativa del Aire 114.505 0 . 0 . 0 . 0 . 0 0.00 %
04 Temperatura Máxima PM 4.349 0 . 0 . 179 4.12 % 0 . 179 4.12 %
05 Temperatura Mínima AM 4.356 0 . 0 . 30 0.69 % 0 . 30 0.69 %
06 Viento a 10 m. de Altura 10.683 0 . 6 0.06 % 0 . 0 . 6 0.06 %
07 Agua Caida, Acumulada 6 Horas 21.325 0 . 0 . 0 . 0 . 0 0.00 %
08 Presión Atm. a Nivel de Estación (QFE) 8.786 1 0.01 % 16 0.18 % 0 . 0 . 17 0.19 %
09 Presión Atm. a Nivel Medio del Mar (QFF) 90.421 1 0.00 % 0 . 0 . 0 . 1 0.00 %
10 Presión Atm. Estándar OACI (QNH) 1.797 0 . 0 . 0 . 0 . 0 0.00 %

Totales

496.120 . 0.0004 % . 0.0044 % . 0.0421 % . 0.0000 % 233 0.0470 %

Detalle de Errores Recientes

Fecha del Dato Descripción Información Error Fecha Ingreso
1999-11-07 00:00:00 Temperatura 24.4 del 06-11-1999 18:00, Mayor que la Máxima 24.0 07-11-1999 00:00 24.4 -- 24.0 2023-12-29 03:02:00
1999-11-09 00:00:00 Temperatura 25.2 del 08-11-1999 18:00, Mayor que la Máxima 25.0 09-11-1999 00:00 25.2 -- 25.0 2023-12-29 03:02:00
1999-11-23 00:00:00 Temperatura 27.8 del 22-11-1999 18:00, Mayor que la Máxima 27.4 23-11-1999 00:00 27.8 -- 27.4 2023-12-29 03:02:00
1999-12-09 00:00:00 Temperatura 27.8 del 08-12-1999 18:00, Mayor que la Máxima 27.0 09-12-1999 00:00 27.8 -- 27.0 2023-12-29 03:02:00
1999-12-10 00:00:00 Temperatura 25.4 del 09-12-1999 18:00, Mayor que la Máxima 25.0 10-12-1999 00:00 25.4 -- 25.0 2023-12-29 03:02:00
2000-03-02 00:00:00 Temperatura 27.4 del 01-03-2000 18:00, Mayor que la Máxima 27.2 02-03-2000 00:00 27.4 -- 27.2 2023-12-29 03:02:00
2000-03-04 00:00:00 Temperatura 28.2 del 03-03-2000 18:00, Mayor que la Máxima 28.0 04-03-2000 00:00 28.2 -- 28.0 2023-12-29 03:02:00
2000-03-05 00:00:00 Temperatura 27.6 del 04-03-2000 18:00, Mayor que la Máxima 27.4 05-03-2000 00:00 27.6 -- 27.4 2023-12-29 03:02:00
2000-03-08 00:00:00 Temperatura 29.6 del 07-03-2000 18:00, Mayor que la Máxima 29.0 08-03-2000 00:00 29.6 -- 29.0 2023-12-29 03:02:00
2000-03-14 00:00:00 Temperatura 27.2 del 13-03-2000 18:00, Mayor que la Máxima 27.0 14-03-2000 00:00 27.2 -- 27.0 2023-12-29 03:02:00
2000-03-21 00:00:00 Temperatura 26.8 del 20-03-2000 18:00, Mayor que la Máxima 26.4 21-03-2000 00:00 26.8 -- 26.4 2023-12-29 03:02:00
2000-03-22 00:00:00 Temperatura 32.2 del 21-03-2000 18:00, Mayor que la Máxima 32.0 22-03-2000 00:00 32.2 -- 32.0 2023-12-29 03:02:00
2000-03-24 00:00:00 Temperatura 26.6 del 23-03-2000 18:00, Mayor que la Máxima 26.2 24-03-2000 00:00 26.6 -- 26.2 2023-12-29 03:02:00
2000-03-25 00:00:00 Temperatura 26.4 del 24-03-2000 18:00, Mayor que la Máxima 26.0 25-03-2000 00:00 26.4 -- 26.0 2023-12-29 03:02:00
2000-03-26 00:00:00 Temperatura 25.8 del 25-03-2000 18:00, Mayor que la Máxima 25.6 26-03-2000 00:00 25.8 -- 25.6 2023-12-29 03:02:00
2000-03-29 00:00:00 Temperatura 28.6 del 28-03-2000 18:00, Mayor que la Máxima 28.2 29-03-2000 00:00 28.6 -- 28.2 2023-12-29 03:02:00
2000-03-30 00:00:00 Temperatura 25.8 del 29-03-2000 18:00, Mayor que la Máxima 25.4 30-03-2000 00:00 25.8 -- 25.4 2023-12-29 03:02:00
2000-04-01 00:00:00 Temperatura 28.0 del 31-03-2000 18:00, Mayor que la Máxima 27.5 01-04-2000 00:00 28.0 -- 27.5 2023-12-29 03:02:00
2000-04-02 00:00:00 Temperatura 28.2 del 01-04-2000 18:00, Mayor que la Máxima 28.0 02-04-2000 00:00 28.2 -- 28.0 2023-12-29 03:02:00
2000-04-04 00:00:00 Temperatura 25.4 del 03-04-2000 18:00, Mayor que la Máxima 25.0 04-04-2000 00:00 25.4 -- 25.0 2023-12-29 03:02:00
2000-04-05 00:00:00 Temperatura 27.4 del 04-04-2000 18:00, Mayor que la Máxima 27.0 05-04-2000 00:00 27.4 -- 27.0 2023-12-29 03:02:00
2000-04-06 00:00:00 Temperatura 26.4 del 05-04-2000 18:00, Mayor que la Máxima 26.0 06-04-2000 00:00 26.4 -- 26.0 2023-12-29 03:02:00
2000-04-08 00:00:00 Temperatura 25.0 del 07-04-2000 18:00, Mayor que la Máxima 24.0 08-04-2000 00:00 25.0 -- 24.0 2023-12-29 03:03:00
2000-04-09 00:00:00 Temperatura 27.0 del 08-04-2000 18:00, Mayor que la Máxima 25.0 09-04-2000 00:00 27.0 -- 25.0 2023-12-29 03:03:00
2000-04-10 00:00:00 Temperatura 27.2 del 09-04-2000 18:00, Mayor que la Máxima 26.0 10-04-2000 00:00 27.2 -- 26.0 2023-12-29 03:03:00
2000-04-11 00:00:00 Temperatura 31.2 del 10-04-2000 18:00, Mayor que la Máxima 30.0 11-04-2000 00:00 31.2 -- 30.0 2023-12-29 03:03:00
2000-04-13 00:00:00 Temperatura 21.2 del 12-04-2000 18:00, Mayor que la Máxima 21.0 13-04-2000 00:00 21.2 -- 21.0 2023-12-29 03:03:00
2000-04-15 00:00:00 Temperatura 16.6 del 14-04-2000 18:00, Mayor que la Máxima 15.0 15-04-2000 00:00 16.6 -- 15.0 2023-12-29 03:03:00
2000-04-16 00:00:00 Temperatura 19.2 del 15-04-2000 18:00, Mayor que la Máxima 19.0 16-04-2000 00:00 19.2 -- 19.0 2023-12-29 03:03:00
2000-04-18 00:00:00 Temperatura 22.4 del 17-04-2000 18:00, Mayor que la Máxima 22.0 18-04-2000 00:00 22.4 -- 22.0 2023-12-29 03:03:00
2000-04-19 00:00:00 Temperatura 26.4 del 18-04-2000 18:00, Mayor que la Máxima 24.0 19-04-2000 00:00 26.4 -- 24.0 2023-12-29 03:03:00
2000-04-20 00:00:00 Temperatura 22.6 del 19-04-2000 18:00, Mayor que la Máxima 22.0 20-04-2000 00:00 22.6 -- 22.0 2023-12-29 03:03:00
2000-04-21 00:00:00 Temperatura 23.6 del 20-04-2000 18:00, Mayor que la Máxima 22.0 21-04-2000 00:00 23.6 -- 22.0 2023-12-29 03:03:00
2000-04-23 00:00:00 Temperatura 29.2 del 22-04-2000 18:00, Mayor que la Máxima 28.0 23-04-2000 00:00 29.2 -- 28.0 2023-12-29 03:03:00
2000-04-24 00:00:00 Temperatura 25.2 del 23-04-2000 18:00, Mayor que la Máxima 25.0 24-04-2000 00:00 25.2 -- 25.0 2023-12-29 03:03:00
2000-04-26 00:00:00 Temperatura 21.2 del 25-04-2000 18:00, Mayor que la Máxima 20.0 26-04-2000 00:00 21.2 -- 20.0 2023-12-29 03:03:00
2000-04-27 00:00:00 Temperatura 25.0 del 26-04-2000 18:00, Mayor que la Máxima 24.0 27-04-2000 00:00 25.0 -- 24.0 2023-12-29 03:03:00
2000-05-01 00:00:00 Temperatura 24.8 del 30-04-2000 18:00, Mayor que la Máxima 24.0 01-05-2000 00:00 24.8 -- 24.0 2023-12-29 03:03:00
2000-05-02 00:00:00 Temperatura 18.4 del 01-05-2000 18:00, Mayor que la Máxima 18.0 02-05-2000 00:00 18.4 -- 18.0 2023-12-29 03:03:00
2000-05-03 00:00:00 Temperatura 19.2 del 02-05-2000 18:00, Mayor que la Máxima 19.0 03-05-2000 00:00 19.2 -- 19.0 2023-12-29 03:03:00
2000-05-07 00:00:00 Temperatura 27.4 del 06-05-2000 18:00, Mayor que la Máxima 27.0 07-05-2000 00:00 27.4 -- 27.0 2023-12-29 03:03:00
2000-05-08 00:00:00 Temperatura 24.6 del 07-05-2000 18:00, Mayor que la Máxima 24.0 08-05-2000 00:00 24.6 -- 24.0 2023-12-29 03:03:00
2000-05-16 00:00:00 Temperatura 15.4 del 15-05-2000 18:00, Mayor que la Máxima 15.0 16-05-2000 00:00 15.4 -- 15.0 2023-12-29 03:03:00
2000-05-17 00:00:00 Temperatura 23.4 del 16-05-2000 18:00, Mayor que la Máxima 23.0 17-05-2000 00:00 23.4 -- 23.0 2023-12-29 03:03:00
2000-05-18 00:00:00 Temperatura 23.2 del 17-05-2000 18:00, Mayor que la Máxima 23.0 18-05-2000 00:00 23.2 -- 23.0 2023-12-29 03:03:00
2000-05-19 00:00:00 Temperatura 17.8 del 18-05-2000 18:00, Mayor que la Máxima 17.0 19-05-2000 00:00 17.8 -- 17.0 2023-12-29 03:03:00
2000-05-28 00:00:00 Temperatura 23.6 del 27-05-2000 18:00, Mayor que la Máxima 23.0 28-05-2000 00:00 23.6 -- 23.0 2023-12-29 03:03:00
2000-05-30 00:00:00 Temperatura 22.6 del 29-05-2000 18:00, Mayor que la Máxima 21.0 30-05-2000 00:00 22.6 -- 21.0 2023-12-29 03:03:00
2000-05-31 00:00:00 Temperatura 21.6 del 30-05-2000 18:00, Mayor que la Máxima 21.0 31-05-2000 00:00 21.6 -- 21.0 2023-12-29 03:03:00
2000-06-01 00:00:00 Temperatura 15.8 del 31-05-2000 18:00, Mayor que la Máxima 15.0 01-06-2000 00:00 15.8 -- 15.0 2023-12-29 03:03:00
2000-06-05 00:00:00 Temperatura 22.2 del 04-06-2000 18:00, Mayor que la Máxima 22.0 05-06-2000 00:00 22.2 -- 22.0 2023-12-29 03:03:00
2000-06-06 00:00:00 Temperatura 20.4 del 05-06-2000 18:00, Mayor que la Máxima 20.0 06-06-2000 00:00 20.4 -- 20.0 2023-12-29 03:03:00
2000-06-10 00:00:00 Temperatura 17.2 del 09-06-2000 18:00, Mayor que la Máxima 12.0 10-06-2000 00:00 17.2 -- 12.0 2023-12-29 03:03:00
2000-06-11 00:00:00 Temperatura 22.8 del 10-06-2000 18:00, Mayor que la Máxima 22.0 11-06-2000 00:00 22.8 -- 22.0 2023-12-29 03:03:00
2000-06-12 00:00:00 Temperatura 20.6 del 11-06-2000 18:00, Mayor que la Máxima 20.0 12-06-2000 00:00 20.6 -- 20.0 2023-12-29 03:03:00
2000-06-13 00:00:00 Temperatura 12.0 del 12-06-2000 18:00, Mayor que la Máxima 11.2 13-06-2000 00:00 12.0 -- 11.2 2023-12-29 03:03:00
2000-06-14 00:00:00 Temperatura 19.2 del 13-06-2000 18:00, Mayor que la Máxima 18.0 14-06-2000 00:00 19.2 -- 18.0 2023-12-29 03:03:00
2000-06-16 00:00:00 Temperatura 12.6 del 15-06-2000 18:00, Mayor que la Máxima 12.0 16-06-2000 00:00 12.6 -- 12.0 2023-12-29 03:03:00
2000-06-17 00:00:00 Temperatura 18.4 del 17-06-2000 00:00, Mayor que la Máxima 13.0 17-06-2000 00:00 18.4 -- 13.0 2023-12-29 03:03:00
2000-06-18 00:00:00 Temperatura 14.0 del 17-06-2000 18:00, Mayor que la Máxima 12.0 18-06-2000 00:00 14.0 -- 12.0 2023-12-29 03:03:00
2000-06-19 00:00:00 Temperatura 13.8 del 18-06-2000 18:00, Mayor que la Máxima 12.0 19-06-2000 00:00 13.8 -- 12.0 2023-12-29 03:03:00
2000-06-23 00:00:00 Temperatura 20.2 del 22-06-2000 18:00, Mayor que la Máxima 19.0 23-06-2000 00:00 20.2 -- 19.0 2023-12-29 03:03:00
2000-06-24 00:00:00 Temperatura 13.6 del 23-06-2000 18:00, Mayor que la Máxima 12.0 24-06-2000 00:00 13.6 -- 12.0 2023-12-29 03:03:00
2000-06-26 00:00:00 Temperatura 13.2 del 25-06-2000 18:00, Mayor que la Máxima 12.6 26-06-2000 00:00 13.2 -- 12.6 2023-12-29 03:03:00
2000-06-27 00:00:00 Temperatura 15.2 del 26-06-2000 18:00, Mayor que la Máxima 15.0 27-06-2000 00:00 15.2 -- 15.0 2023-12-29 03:03:00
2000-06-29 00:00:00 Temperatura 12.0 del 28-06-2000 18:00, Mayor que la Máxima 11.0 29-06-2000 00:00 12.0 -- 11.0 2023-12-29 03:03:00
2000-07-01 00:00:00 Temperatura 18.6 del 30-06-2000 18:00, Mayor que la Máxima 18.2 01-07-2000 00:00 18.6 -- 18.2 2023-12-29 03:03:00
2000-07-03 00:00:00 Temperatura 17.0 del 02-07-2000 18:00, Mayor que la Máxima 16.9 03-07-2000 00:00 17.0 -- 16.9 2023-12-29 03:03:00
2000-07-09 00:00:00 Temperatura 10.7 del 08-07-2000 18:00, Mayor que la Máxima 10.2 09-07-2000 00:00 10.7 -- 10.2 2023-12-29 03:03:00
2000-07-11 00:00:00 Temperatura 10.2 del 10-07-2000 18:00, Mayor que la Máxima 10.0 11-07-2000 00:00 10.2 -- 10.0 2023-12-29 03:03:00
2000-07-14 00:00:00 Temperatura 26.0 del 13-07-2000 18:00, Mayor que la Máxima 22.0 14-07-2000 00:00 26.0 -- 22.0 2023-12-29 03:03:00
2000-07-18 00:00:00 Temperatura 17.6 del 17-07-2000 18:00, Mayor que la Máxima 17.0 18-07-2000 00:00 17.6 -- 17.0 2023-12-29 03:03:00
2000-07-21 00:00:00 Temperatura 17.0 del 20-07-2000 18:00, Mayor que la Máxima 16.0 21-07-2000 00:00 17.0 -- 16.0 2023-12-29 03:03:00
2000-07-25 00:00:00 Temperatura 22.8 del 24-07-2000 18:00, Mayor que la Máxima 22.0 25-07-2000 00:00 22.8 -- 22.0 2023-12-29 03:03:00
2000-07-28 00:00:00 Temperatura 25.2 del 27-07-2000 18:00, Mayor que la Máxima 22.0 28-07-2000 00:00 25.2 -- 22.0 2023-12-29 03:03:00
2000-07-30 00:00:00 Temperatura 28.0 del 29-07-2000 18:00, Mayor que la Máxima 18.0 30-07-2000 00:00 28.0 -- 18.0 2023-12-29 03:03:00
2000-07-31 00:00:00 Temperatura 24.2 del 30-07-2000 18:00, Mayor que la Máxima 23.5 31-07-2000 00:00 24.2 -- 23.5 2023-12-29 03:03:00
2000-08-08 00:00:00 Temperatura 24.1 del 07-08-2000 18:00, Mayor que la Máxima 24.0 08-08-2000 00:00 24.1 -- 24.0 2023-12-29 03:03:00
2000-08-23 00:00:00 Temperatura 18.1 del 22-08-2000 18:00, Mayor que la Máxima 18.0 23-08-2000 00:00 18.1 -- 18.0 2023-12-29 03:03:00
2000-08-24 00:00:00 Temperatura 18.2 del 23-08-2000 18:00, Mayor que la Máxima 18.0 24-08-2000 00:00 18.2 -- 18.0 2023-12-29 03:03:00
2000-08-27 00:00:00 Temperatura 16.4 del 26-08-2000 18:00, Mayor que la Máxima 16.0 27-08-2000 00:00 16.4 -- 16.0 2023-12-29 03:03:00
2000-08-30 00:00:00 Temperatura 24.8 del 29-08-2000 18:00, Mayor que la Máxima 24.0 30-08-2000 00:00 24.8 -- 24.0 2023-12-29 03:03:00
2000-09-01 00:00:00 Temperatura 20.3 del 31-08-2000 18:00, Mayor que la Máxima 20.0 01-09-2000 00:00 20.3 -- 20.0 2023-12-29 03:03:00
2000-09-03 00:00:00 Temperatura 24.6 del 02-09-2000 18:00, Mayor que la Máxima 24.0 03-09-2000 00:00 24.6 -- 24.0 2023-12-29 03:03:00
2000-09-04 00:00:00 Temperatura 20.4 del 03-09-2000 18:00, Mayor que la Máxima 13.0 04-09-2000 00:00 20.4 -- 13.0 2023-12-29 03:03:00
2000-09-06 00:00:00 Temperatura 20.6 del 05-09-2000 18:00, Mayor que la Máxima 20.2 06-09-2000 00:00 20.6 -- 20.2 2023-12-29 03:03:00
2000-09-07 00:00:00 Temperatura 23.2 del 06-09-2000 18:00, Mayor que la Máxima 23.0 07-09-2000 00:00 23.2 -- 23.0 2023-12-29 03:03:00
2000-09-09 00:00:00 Temperatura 21.8 del 08-09-2000 18:00, Mayor que la Máxima 21.0 09-09-2000 00:00 21.8 -- 21.0 2023-12-29 03:03:00
2000-09-12 00:00:00 Temperatura 14.4 del 11-09-2000 18:00, Mayor que la Máxima 14.0 12-09-2000 00:00 14.4 -- 14.0 2023-12-29 03:03:00
2000-09-17 00:00:00 Temperatura 23.8 del 16-09-2000 18:00, Mayor que la Máxima 23.0 17-09-2000 00:00 23.8 -- 23.0 2023-12-29 03:03:00
2000-09-18 00:00:00 Temperatura 19.8 del 17-09-2000 18:00, Mayor que la Máxima 19.0 18-09-2000 00:00 19.8 -- 19.0 2023-12-29 03:03:00
2000-09-19 00:00:00 Temperatura 20.2 del 18-09-2000 18:00, Mayor que la Máxima 20.0 19-09-2000 00:00 20.2 -- 20.0 2023-12-29 03:03:00
2000-09-20 00:00:00 Temperatura 18.4 del 19-09-2000 18:00, Mayor que la Máxima 18.0 20-09-2000 00:00 18.4 -- 18.0 2023-12-29 03:03:00
2000-09-24 00:00:00 Temperatura 19.9 del 23-09-2000 18:00, Mayor que la Máxima 19.2 24-09-2000 00:00 19.9 -- 19.2 2023-12-29 03:04:00
2000-09-25 00:00:00 Temperatura 23.4 del 24-09-2000 18:00, Mayor que la Máxima 23.0 25-09-2000 00:00 23.4 -- 23.0 2023-12-29 03:04:00
2000-09-26 00:00:00 Temperatura 26.1 del 25-09-2000 18:00, Mayor que la Máxima 25.0 26-09-2000 00:00 26.1 -- 25.0 2023-12-29 03:04:00
2000-09-27 00:00:00 Temperatura 27.6 del 26-09-2000 18:00, Mayor que la Máxima 26.0 27-09-2000 00:00 27.6 -- 26.0 2023-12-29 03:04:00
2000-09-28 00:00:00 Temperatura 16.4 del 27-09-2000 18:00, Mayor que la Máxima 16.0 28-09-2000 00:00 16.4 -- 16.0 2023-12-29 03:04:00
2000-09-30 00:00:00 Temperatura 26.4 del 29-09-2000 18:00, Mayor que la Máxima 25.7 30-09-2000 00:00 26.4 -- 25.7 2023-12-29 03:04:00
2000-10-01 00:00:00 Temperatura 27.2 del 30-09-2000 18:00, Mayor que la Máxima 27.0 01-10-2000 00:00 27.2 -- 27.0 2023-12-29 03:04:00
2000-10-03 00:00:00 Temperatura 18.4 del 02-10-2000 18:00, Mayor que la Máxima 18.0 03-10-2000 00:00 18.4 -- 18.0 2023-12-29 03:04:00
2000-10-04 00:00:00 Temperatura 21.4 del 03-10-2000 18:00, Mayor que la Máxima 21.0 04-10-2000 00:00 21.4 -- 21.0 2023-12-29 03:04:00
2000-10-05 00:00:00 Temperatura 23.4 del 04-10-2000 18:00, Mayor que la Máxima 23.0 05-10-2000 00:00 23.4 -- 23.0 2023-12-29 03:04:00
2000-10-07 00:00:00 Temperatura 26.4 del 06-10-2000 18:00, Mayor que la Máxima 26.0 07-10-2000 00:00 26.4 -- 26.0 2023-12-29 03:04:00
2000-10-08 00:00:00 Temperatura 28.1 del 07-10-2000 18:00, Mayor que la Máxima 28.0 08-10-2000 00:00 28.1 -- 28.0 2023-12-29 03:04:00
2000-10-10 00:00:00 Temperatura 24.6 del 09-10-2000 18:00, Mayor que la Máxima 23.0 10-10-2000 00:00 24.6 -- 23.0 2023-12-29 03:04:00
2000-10-12 00:00:00 Temperatura 24.2 del 11-10-2000 18:00, Mayor que la Máxima 23.0 12-10-2000 00:00 24.2 -- 23.0 2023-12-29 03:04:00
2000-10-13 00:00:00 Temperatura 23.3 del 12-10-2000 18:00, Mayor que la Máxima 22.0 13-10-2000 00:00 23.3 -- 22.0 2023-12-29 03:04:00
2000-10-14 00:00:00 Temperatura 25.2 del 13-10-2000 18:00, Mayor que la Máxima 24.0 14-10-2000 00:00 25.2 -- 24.0 2023-12-29 03:04:00
2000-10-15 00:00:00 Temperatura 23.2 del 14-10-2000 18:00, Mayor que la Máxima 22.0 15-10-2000 00:00 23.2 -- 22.0 2023-12-29 03:04:00
2000-10-16 00:00:00 Temperatura 22.4 del 15-10-2000 18:00, Mayor que la Máxima 21.0 16-10-2000 00:00 22.4 -- 21.0 2023-12-29 03:04:00
2000-10-18 00:00:00 Temperatura 27.7 del 17-10-2000 18:00, Mayor que la Máxima 27.0 18-10-2000 00:00 27.7 -- 27.0 2023-12-29 03:04:00
2000-10-19 00:00:00 Temperatura 31.3 del 18-10-2000 18:00, Mayor que la Máxima 31.0 19-10-2000 00:00 31.3 -- 31.0 2023-12-29 03:04:00
2000-10-20 00:00:00 Temperatura 31.3 del 19-10-2000 18:00, Mayor que la Máxima 31.0 20-10-2000 00:00 31.3 -- 31.0 2023-12-29 03:04:00
2000-10-25 00:00:00 Temperatura 18.1 del 24-10-2000 18:00, Mayor que la Máxima 17.2 25-10-2000 00:00 18.1 -- 17.2 2023-12-29 03:04:00
2000-10-26 00:00:00 Temperatura 19.4 del 25-10-2000 18:00, Mayor que la Máxima 18.5 26-10-2000 00:00 19.4 -- 18.5 2023-12-29 03:04:00
2000-10-27 00:00:00 Temperatura 27.4 del 26-10-2000 18:00, Mayor que la Máxima 27.0 27-10-2000 00:00 27.4 -- 27.0 2023-12-29 03:04:00
2000-10-29 00:00:00 Temperatura 27.6 del 28-10-2000 18:00, Mayor que la Máxima 26.0 29-10-2000 00:00 27.6 -- 26.0 2023-12-29 03:04:00
2000-10-30 00:00:00 Temperatura 26.6 del 29-10-2000 18:00, Mayor que la Máxima 25.0 30-10-2000 00:00 26.6 -- 25.0 2023-12-29 03:04:00
2000-11-01 00:00:00 Temperatura 16.0 del 31-10-2000 18:00, Mayor que la Máxima 15.6 01-11-2000 00:00 16.0 -- 15.6 2023-12-29 03:04:00
2000-11-05 00:00:00 Temperatura 21.2 del 04-11-2000 18:00, Mayor que la Máxima 21.0 05-11-2000 00:00 21.2 -- 21.0 2023-12-29 03:04:00
2000-11-16 00:00:00 Temperatura 24.6 del 15-11-2000 18:00, Mayor que la Máxima 24.0 16-11-2000 00:00 24.6 -- 24.0 2023-12-29 03:04:00
2000-11-19 00:00:00 Temperatura 27.4 del 18-11-2000 18:00, Mayor que la Máxima 27.3 19-11-2000 00:00 27.4 -- 27.3 2023-12-29 03:04:00
2000-11-20 00:00:00 Temperatura 27.4 del 19-11-2000 18:00, Mayor que la Máxima 27.0 20-11-2000 00:00 27.4 -- 27.0 2023-12-29 03:04:00
2000-11-21 00:00:00 Temperatura 30.8 del 20-11-2000 18:00, Mayor que la Máxima 29.9 21-11-2000 00:00 30.8 -- 29.9 2023-12-29 03:04:00
2000-11-22 00:00:00 Temperatura 27.4 del 21-11-2000 18:00, Mayor que la Máxima 27.0 22-11-2000 00:00 27.4 -- 27.0 2023-12-29 03:04:00
2000-11-25 00:00:00 Temperatura 30.0 del 24-11-2000 18:00, Mayor que la Máxima 29.4 25-11-2000 00:00 30.0 -- 29.4 2023-12-29 03:04:00
2000-11-26 00:00:00 Temperatura 31.4 del 25-11-2000 18:00, Mayor que la Máxima 31.0 26-11-2000 00:00 31.4 -- 31.0 2023-12-29 03:04:00
2000-11-28 00:00:00 Temperatura 26.0 del 27-11-2000 18:00, Mayor que la Máxima 25.0 28-11-2000 00:00 26.0 -- 25.0 2023-12-29 03:04:00
2000-11-29 00:00:00 Temperatura 25.2 del 28-11-2000 18:00, Mayor que la Máxima 24.0 29-11-2000 00:00 25.2 -- 24.0 2023-12-29 03:04:00
2000-11-30 00:00:00 Temperatura 27.2 del 29-11-2000 18:00, Mayor que la Máxima 26.9 30-11-2000 00:00 27.2 -- 26.9 2023-12-29 03:04:00
2000-12-01 00:00:00 Temperatura 28.0 del 30-11-2000 18:00, Mayor que la Máxima 27.3 01-12-2000 00:00 28.0 -- 27.3 2023-12-29 03:04:00
2000-12-02 00:00:00 Temperatura 31.4 del 01-12-2000 18:00, Mayor que la Máxima 30.0 02-12-2000 00:00 31.4 -- 30.0 2023-12-29 03:04:00
2000-12-03 00:00:00 Temperatura 29.2 del 02-12-2000 18:00, Mayor que la Máxima 28.0 03-12-2000 00:00 29.2 -- 28.0 2023-12-29 03:04:00
2000-12-04 00:00:00 Temperatura 27.0 del 03-12-2000 18:00, Mayor que la Máxima 26.0 04-12-2000 00:00 27.0 -- 26.0 2023-12-29 03:04:00
2000-12-05 00:00:00 Temperatura 27.8 del 04-12-2000 18:00, Mayor que la Máxima 27.0 05-12-2000 00:00 27.8 -- 27.0 2023-12-29 03:04:00
2000-12-06 00:00:00 Temperatura 26.3 del 05-12-2000 18:00, Mayor que la Máxima 26.0 06-12-2000 00:00 26.3 -- 26.0 2023-12-29 03:04:00
2000-12-07 00:00:00 Temperatura 26.3 del 06-12-2000 18:00, Mayor que la Máxima 26.1 07-12-2000 00:00 26.3 -- 26.1 2023-12-29 03:04:00
2000-12-08 00:00:00 Temperatura 27.8 del 07-12-2000 18:00, Mayor que la Máxima 27.0 08-12-2000 00:00 27.8 -- 27.0 2023-12-29 03:04:00
2000-12-09 00:00:00 Temperatura 30.4 del 08-12-2000 18:00, Mayor que la Máxima 29.5 09-12-2000 00:00 30.4 -- 29.5 2023-12-29 03:04:00
2000-12-10 00:00:00 Temperatura 26.8 del 09-12-2000 18:00, Mayor que la Máxima 26.2 10-12-2000 00:00 26.8 -- 26.2 2023-12-29 03:04:00
2000-12-11 00:00:00 Temperatura 26.4 del 10-12-2000 18:00, Mayor que la Máxima 24.9 11-12-2000 00:00 26.4 -- 24.9 2023-12-29 03:04:00
2000-12-13 00:00:00 Temperatura 29.8 del 12-12-2000 18:00, Mayor que la Máxima 29.6 13-12-2000 00:00 29.8 -- 29.6 2023-12-29 03:04:00
2000-12-14 00:00:00 Temperatura 26.2 del 13-12-2000 18:00, Mayor que la Máxima 25.9 14-12-2000 00:00 26.2 -- 25.9 2023-12-29 03:04:00
2000-12-16 00:00:00 Temperatura 28.2 del 15-12-2000 18:00, Mayor que la Máxima 28.0 16-12-2000 00:00 28.2 -- 28.0 2023-12-29 03:04:00
2000-12-17 00:00:00 Temperatura 30.6 del 16-12-2000 18:00, Mayor que la Máxima 30.0 17-12-2000 00:00 30.6 -- 30.0 2023-12-29 03:04:00
2000-12-18 00:00:00 Temperatura 28.3 del 17-12-2000 18:00, Mayor que la Máxima 28.2 18-12-2000 00:00 28.3 -- 28.2 2023-12-29 03:04:00
2000-12-26 00:00:00 Temperatura 29.8 del 25-12-2000 18:00, Mayor que la Máxima 28.0 26-12-2000 00:00 29.8 -- 28.0 2023-12-29 03:04:00
2000-12-27 00:00:00 Temperatura 27.2 del 26-12-2000 18:00, Mayor que la Máxima 25.0 27-12-2000 00:00 27.2 -- 25.0 2023-12-29 03:04:00
2000-12-28 00:00:00 Temperatura 26.2 del 27-12-2000 18:00, Mayor que la Máxima 24.0 28-12-2000 00:00 26.2 -- 24.0 2023-12-29 03:04:00
2000-12-29 00:00:00 Temperatura 26.0 del 28-12-2000 18:00, Mayor que la Máxima 25.0 29-12-2000 00:00 26.0 -- 25.0 2023-12-29 03:04:00
2000-12-30 00:00:00 Temperatura 27.3 del 29-12-2000 18:00, Mayor que la Máxima 25.9 30-12-2000 00:00 27.3 -- 25.9 2023-12-29 03:04:00
2000-12-31 00:00:00 Temperatura 26.2 del 30-12-2000 18:00, Mayor que la Máxima 25.0 31-12-2000 00:00 26.2 -- 25.0 2023-12-29 03:04:00
2001-01-01 00:00:00 Temperatura 28.0 del 31-12-2000 18:00, Mayor que la Máxima 26.0 01-01-2001 00:00 28.0 -- 26.0 2023-12-29 03:04:00
2001-02-18 00:00:00 Temperatura 29.6 del 17-02-2001 18:00, Mayor que la Máxima 29.0 18-02-2001 00:00 29.6 -- 29.0 2023-12-29 03:04:00
2001-07-21 00:00:00 Temperatura 16.8 del 20-07-2001 18:00, Mayor que la Máxima 14.2 21-07-2001 00:00 16.8 -- 14.2 2023-12-29 03:05:00
2001-07-31 00:00:00 Temperatura 10.6 del 31-07-2001 00:00, Mayor que la Máxima 10.4 31-07-2001 00:00 10.6 -- 10.4 2023-12-29 03:05:00
2001-08-14 00:00:00 Temperatura 19.3 del 13-08-2001 18:00, Mayor que la Máxima 19.2 14-08-2001 00:00 19.3 -- 19.2 2023-12-29 03:05:00
2001-11-23 00:00:00 Temperatura 25.0 del 22-11-2001 18:00, Mayor que la Máxima 24.8 23-11-2001 00:00 25.0 -- 24.8 2023-12-29 03:06:00
2001-12-15 00:00:00 Temperatura 29.4 del 14-12-2001 18:00, Mayor que la Máxima 25.6 15-12-2001 00:00 29.4 -- 25.6 2023-12-29 03:06:00
2002-02-11 00:00:00 Temperatura 26.4 del 10-02-2002 18:00, Mayor que la Máxima 26.0 11-02-2002 00:00 26.4 -- 26.0 2023-12-29 03:06:00
2002-02-18 00:00:00 Temperatura 28.0 del 17-02-2002 18:00, Mayor que la Máxima 27.4 18-02-2002 00:00 28.0 -- 27.4 2023-12-29 03:06:00
2002-02-23 00:00:00 Temperatura 29.6 del 22-02-2002 18:00, Mayor que la Máxima 29.4 23-02-2002 00:00 29.6 -- 29.4 2023-12-29 03:06:00
2002-03-26 00:00:00 Temperatura 29.2 del 25-03-2002 18:00, Mayor que la Máxima 28.8 26-03-2002 00:00 29.2 -- 28.8 2023-12-29 03:07:00
2002-04-03 00:00:00 Temperatura 26.2 del 02-04-2002 18:00, Mayor que la Máxima 26.0 03-04-2002 00:00 26.2 -- 26.0 2023-12-29 03:07:00
2002-04-30 00:00:00 Temperatura 24.2 del 29-04-2002 18:00, Mayor que la Máxima 23.8 30-04-2002 00:00 24.2 -- 23.8 2023-12-29 03:07:00
2002-05-03 00:00:00 Temperatura 27.2 del 02-05-2002 18:00, Mayor que la Máxima 27.0 03-05-2002 00:00 27.2 -- 27.0 2023-12-29 03:07:00
2002-05-06 00:00:00 Temperatura 30.6 del 05-05-2002 18:00, Mayor que la Máxima 30.4 06-05-2002 00:00 30.6 -- 30.4 2023-12-29 03:07:00
2002-06-08 00:00:00 Temperatura 16.6 del 07-06-2002 18:00, Mayor que la Máxima 12.8 08-06-2002 00:00 16.6 -- 12.8 2023-12-29 03:07:00
2002-08-02 00:00:00 Temperatura 19.4 del 01-08-2002 18:00, Mayor que la Máxima 19.2 02-08-2002 00:00 19.4 -- 19.2 2023-12-29 03:07:00
2002-09-29 00:00:00 Temperatura 26.8 del 28-09-2002 18:00, Mayor que la Máxima 26.4 29-09-2002 00:00 26.8 -- 26.4 2023-12-29 03:08:00
2002-10-06 00:00:00 Temperatura 24.8 del 05-10-2002 18:00, Mayor que la Máxima 24.4 06-10-2002 00:00 24.8 -- 24.4 2023-12-29 03:08:00
2002-11-29 00:00:00 Temperatura 26.4 del 28-11-2002 18:00, Mayor que la Máxima 23.0 29-11-2002 00:00 26.4 -- 23.0 2023-12-29 03:08:00
2009-03-23 00:00:00 Temperatura 27.6 del 22-03-2009 18:00, Mayor que la Máxima 27.4 23-03-2009 00:00 27.6 -- 27.4 2023-12-31 00:47:00
2009-03-25 00:00:00 Temperatura 27.9 del 24-03-2009 18:00, Mayor que la Máxima 27.8 25-03-2009 00:00 27.9 -- 27.8 2023-12-31 00:47:00
2009-03-26 00:00:00 Temperatura 28.4 del 25-03-2009 19:00, Mayor que la Máxima 28.2 26-03-2009 00:00 28.4 -- 28.2 2023-12-31 00:47:00
2009-03-27 00:00:00 Temperatura 28.3 del 26-03-2009 19:00, Mayor que la Máxima 28.2 27-03-2009 00:00 28.3 -- 28.2 2023-12-31 00:47:00
2009-03-28 00:00:00 Temperatura 29.6 del 27-03-2009 19:00, Mayor que la Máxima 29.0 28-03-2009 00:00 29.6 -- 29.0 2023-12-31 00:47:00
2009-04-01 00:00:00 Temperatura 31.5 del 31-03-2009 18:00, Mayor que la Máxima 31.4 01-04-2009 00:00 31.5 -- 31.4 2023-12-31 00:47:00
1999-11-01 12:00:00 Temperatura 11.2 del 01-11-1999 12:00, Menor que la Mínima 11.6 01-11-1999 12:00 11.2 -- 11.6 2023-12-29 03:02:00
1999-11-02 12:00:00 Temperatura 11.6 del 02-11-1999 12:00, Menor que la Mínima 11.8 02-11-1999 12:00 11.6 -- 11.8 2023-12-29 03:02:00
1999-11-05 12:00:00 Temperatura 15.2 del 05-11-1999 12:00, Menor que la Mínima 15.6 05-11-1999 12:00 15.2 -- 15.6 2023-12-29 03:02:00
1999-11-06 12:00:00 Temperatura 14.4 del 06-11-1999 12:00, Menor que la Mínima 14.6 06-11-1999 12:00 14.4 -- 14.6 2023-12-29 03:02:00
1999-11-22 12:00:00 Temperatura 15.0 del 22-11-1999 12:00, Menor que la Mínima 15.4 22-11-1999 12:00 15.0 -- 15.4 2023-12-29 03:02:00
1999-11-23 12:00:00 Temperatura 12.0 del 23-11-1999 12:00, Menor que la Mínima 12.2 23-11-1999 12:00 12.0 -- 12.2 2023-12-29 03:02:00
1999-11-24 12:00:00 Temperatura 12.0 del 24-11-1999 12:00, Menor que la Mínima 13.4 24-11-1999 12:00 12.0 -- 13.4 2023-12-29 03:02:00
1999-11-26 12:00:00 Temperatura 11.6 del 26-11-1999 12:00, Menor que la Mínima 11.8 26-11-1999 12:00 11.6 -- 11.8 2023-12-29 03:02:00
2000-03-27 12:00:00 Temperatura 8.8 del 27-03-2000 12:00, Menor que la Mínima 9.2 27-03-2000 12:00 8.8 -- 9.2 2023-12-29 03:02:00
2000-05-05 12:00:00 Temperatura -8.0 del 05-05-2000 12:00, Menor que la Mínima -0.4 05-05-2000 12:00 -8.0 -- -0.4 2023-12-29 03:03:00
2000-12-20 12:00:00 Temperatura 15.6 del 20-12-2000 12:00, Menor que la Mínima 16.4 20-12-2000 12:00 15.6 -- 16.4 2023-12-29 03:04:00
2001-06-03 12:00:00 Temperatura 4.9 del 03-06-2001 12:00, Menor que la Mínima 5.0 03-06-2001 12:00 4.9 -- 5.0 2023-12-29 03:05:00
2001-06-11 12:00:00 Temperatura 8.6 del 11-06-2001 12:00, Menor que la Mínima 8.8 11-06-2001 12:00 8.6 -- 8.8 2023-12-29 03:05:00
2001-06-16 12:00:00 Temperatura 3.2 del 16-06-2001 12:00, Menor que la Mínima 4.0 16-06-2001 12:00 3.2 -- 4.0 2023-12-29 03:05:00
2001-06-29 12:00:00 Temperatura 3.8 del 29-06-2001 12:00, Menor que la Mínima 4.8 29-06-2001 12:00 3.8 -- 4.8 2023-12-29 03:05:00
2001-07-01 12:00:00 Temperatura 7.0 del 01-07-2001 12:00, Menor que la Mínima 7.2 01-07-2001 12:00 7.0 -- 7.2 2023-12-29 03:05:00
2001-07-20 12:00:00 Temperatura 3.6 del 20-07-2001 12:00, Menor que la Mínima 3.8 20-07-2001 12:00 3.6 -- 3.8 2023-12-29 03:05:00
2001-07-24 12:00:00 Temperatura 2.3 del 24-07-2001 12:00, Menor que la Mínima 2.4 24-07-2001 12:00 2.3 -- 2.4 2023-12-29 03:05:00
2001-08-05 12:00:00 Temperatura 6.4 del 05-08-2001 12:00, Menor que la Mínima 6.6 05-08-2001 12:00 6.4 -- 6.6 2023-12-29 03:05:00
2001-08-09 12:00:00 Temperatura 2.4 del 09-08-2001 12:00, Menor que la Mínima 3.4 09-08-2001 12:00 2.4 -- 3.4 2023-12-29 03:05:00
2001-08-13 12:00:00 Temperatura 3.8 del 13-08-2001 12:00, Menor que la Mínima 4.2 13-08-2001 12:00 3.8 -- 4.2 2023-12-29 03:05:00
2001-10-18 12:00:00 Temperatura 11.2 del 18-10-2001 12:00, Menor que la Mínima 11.4 18-10-2001 12:00 11.2 -- 11.4 2023-12-29 03:06:00
2002-04-18 12:00:00 Temperatura 4.4 del 18-04-2002 12:00, Menor que la Mínima 4.6 18-04-2002 12:00 4.4 -- 4.6 2023-12-29 03:07:00
2002-04-26 12:00:00 Temperatura 3.2 del 26-04-2002 12:00, Menor que la Mínima 3.4 26-04-2002 12:00 3.2 -- 3.4 2023-12-29 03:07:00
2002-05-30 12:00:00 Temperatura 5.8 del 30-05-2002 12:00, Menor que la Mínima 6.0 30-05-2002 12:00 5.8 -- 6.0 2023-12-29 03:07:00
2002-06-24 12:00:00 Temperatura 5.6 del 24-06-2002 12:00, Menor que la Mínima 6.0 24-06-2002 12:00 5.6 -- 6.0 2023-12-29 03:07:00
2002-06-27 12:00:00 Temperatura 5.8 del 27-06-2002 12:00, Menor que la Mínima 6.0 27-06-2002 12:00 5.8 -- 6.0 2023-12-29 03:07:00
2002-07-11 12:00:00 Temperatura 3.8 del 11-07-2002 12:00, Menor que la Mínima 4.0 11-07-2002 12:00 3.8 -- 4.0 2023-12-29 03:07:00
2002-07-18 12:00:00 Temperatura 4.2 del 18-07-2002 12:00, Menor que la Mínima 4.6 18-07-2002 12:00 4.2 -- 4.6 2023-12-29 03:07:00
2002-08-20 12:00:00 Temperatura -0.6 del 20-08-2002 12:00, Menor que la Mínima -0.4 20-08-2002 12:00 -0.6 -- -0.4 2023-12-29 03:07:00
2003-05-14 18:00:00 No se informa dirección del Viento (dd), pero si una fuerza y el viento no es variable 2023-12-31 02:55:00
2003-09-17 18:00:00 No se informa dirección del Viento (dd), pero si una fuerza y el viento no es variable 2023-12-31 02:55:00
2005-06-30 18:00:00 No se informa dirección del Viento (dd), pero si una fuerza y el viento no es variable 2023-12-31 01:54:00
2005-07-29 12:00:00 No se informa dirección del Viento (dd), pero si una fuerza y el viento no es variable 2023-12-31 01:54:00
2005-08-25 00:00:00 No se informa dirección del Viento (dd), pero si una fuerza y el viento no es variable 2023-12-31 01:54:00
2006-04-18 12:00:00 No se informa dirección del Viento (dd), pero si una fuerza y el viento no es variable 2023-12-31 01:55:00
Total de Errores Recientes 215

Detalle de Errores Encontrados

Nivel Fecha del Dato Descripción Información Error Fecha Ingreso
0 2023-08-01 04:00:00 qfe (Presión a nivel de estación) debe ser numérico, entre 300 y 1100 0.0 2023-11-03 12:00:00
0 2023-08-01 04:00:00 qff (Presión a nivel del Mar) debe ser numérico, entre 300 y 1100 0.0 2023-11-03 12:00:00
Errores del Nivel 2
Nivel Fecha del Dato Descripción Información Error Fecha Ingreso
1 2003-05-14 18:00:00 No se informa dirección del Viento (dd), pero si una fuerza y el viento no es variable 2023-12-31 02:55:00
1 2003-09-17 18:00:00 No se informa dirección del Viento (dd), pero si una fuerza y el viento no es variable 2023-12-31 02:55:00
1 2005-06-30 18:00:00 No se informa dirección del Viento (dd), pero si una fuerza y el viento no es variable 2023-12-31 01:54:00
1 2005-07-29 12:00:00 No se informa dirección del Viento (dd), pero si una fuerza y el viento no es variable 2023-12-31 01:54:00
1 2005-08-25 00:00:00 No se informa dirección del Viento (dd), pero si una fuerza y el viento no es variable 2023-12-31 01:54:00
1 2006-04-18 12:00:00 No se informa dirección del Viento (dd), pero si una fuerza y el viento no es variable 2023-12-31 01:55:00
1 2020-02-07 04:00:00 qfe debe ser menor o igual a qff 1005.5 - 975.4 2020-02-10 15:12:00
1 2020-02-20 03:00:00 qfe debe ser menor o igual a qff 1002.9 - 950.5 2020-02-20 04:00:00
1 2020-02-21 03:00:00 qfe debe ser menor o igual a qff 1003.2 - 840.6 2020-02-21 04:00:00
1 2020-02-28 12:00:00 qfe debe ser menor o igual a qff 1007.2 - 968.7 2020-02-28 13:00:00
1 2020-03-07 08:00:00 qfe debe ser menor o igual a qff 1001.1 - 960.3 2020-03-07 09:00:00
1 2020-03-18 04:00:00 qfe debe ser menor o igual a qff 1003.5 - 969.7 2020-03-18 05:00:00
1 2020-08-28 13:00:00 qfe debe ser menor o igual a qff 1008.1 - 788.8 2020-08-28 14:00:00
1 2020-10-16 07:00:00 qfe debe ser menor o igual a qff 1002.0 - 842.3 2020-10-16 08:00:00
1 2021-01-10 09:00:00 qfe debe ser menor o igual a qff 1008.4 - 899.0 2021-01-10 10:00:00
1 2021-01-12 09:00:00 qfe debe ser menor o igual a qff 1008.7 - 792.2 2021-01-12 10:00:00
1 2021-01-29 07:00:00 qfe debe ser menor o igual a qff 1005.4 - 973.7 2021-01-29 08:00:00
1 2021-02-19 05:00:00 qfe debe ser menor o igual a qff 1014.6 - 813.0 2021-02-19 06:00:00
1 2022-03-13 05:00:00 qfe debe ser menor o igual a qff 1001.0 - 989.2 2022-03-13 06:00:00
1 2022-03-20 07:00:00 qfe debe ser menor o igual a qff 1006.4 - 889.5 2022-03-20 08:00:00
1 2022-06-21 11:00:00 qfe debe ser menor o igual a qff 999.5 - 978.4 2022-06-21 12:00:00
1 2023-11-18 04:00:00 qfe debe ser menor o igual a qff 1004.9 - 819.1 2023-11-18 05:00:00
Errores del Nivel 22
Nivel Fecha del Dato Descripción Información Error Fecha Ingreso
2 1999-11-07 00:00:00 Temperatura 24.4 del 06-11-1999 18:00, Mayor que la Máxima 24.0 07-11-1999 00:00 24.4 -- 24.0 2023-12-29 03:02:00
2 1999-11-09 00:00:00 Temperatura 25.2 del 08-11-1999 18:00, Mayor que la Máxima 25.0 09-11-1999 00:00 25.2 -- 25.0 2023-12-29 03:02:00
2 1999-11-23 00:00:00 Temperatura 27.8 del 22-11-1999 18:00, Mayor que la Máxima 27.4 23-11-1999 00:00 27.8 -- 27.4 2023-12-29 03:02:00
2 1999-12-09 00:00:00 Temperatura 27.8 del 08-12-1999 18:00, Mayor que la Máxima 27.0 09-12-1999 00:00 27.8 -- 27.0 2023-12-29 03:02:00
2 1999-12-10 00:00:00 Temperatura 25.4 del 09-12-1999 18:00, Mayor que la Máxima 25.0 10-12-1999 00:00 25.4 -- 25.0 2023-12-29 03:02:00
2 2000-03-02 00:00:00 Temperatura 27.4 del 01-03-2000 18:00, Mayor que la Máxima 27.2 02-03-2000 00:00 27.4 -- 27.2 2023-12-29 03:02:00
2 2000-03-04 00:00:00 Temperatura 28.2 del 03-03-2000 18:00, Mayor que la Máxima 28.0 04-03-2000 00:00 28.2 -- 28.0 2023-12-29 03:02:00
2 2000-03-05 00:00:00 Temperatura 27.6 del 04-03-2000 18:00, Mayor que la Máxima 27.4 05-03-2000 00:00 27.6 -- 27.4 2023-12-29 03:02:00
2 2000-03-08 00:00:00 Temperatura 29.6 del 07-03-2000 18:00, Mayor que la Máxima 29.0 08-03-2000 00:00 29.6 -- 29.0 2023-12-29 03:02:00
2 2000-03-14 00:00:00 Temperatura 27.2 del 13-03-2000 18:00, Mayor que la Máxima 27.0 14-03-2000 00:00 27.2 -- 27.0 2023-12-29 03:02:00
2 2000-03-21 00:00:00 Temperatura 26.8 del 20-03-2000 18:00, Mayor que la Máxima 26.4 21-03-2000 00:00 26.8 -- 26.4 2023-12-29 03:02:00
2 2000-03-22 00:00:00 Temperatura 32.2 del 21-03-2000 18:00, Mayor que la Máxima 32.0 22-03-2000 00:00 32.2 -- 32.0 2023-12-29 03:02:00
2 2000-03-24 00:00:00 Temperatura 26.6 del 23-03-2000 18:00, Mayor que la Máxima 26.2 24-03-2000 00:00 26.6 -- 26.2 2023-12-29 03:02:00
2 2000-03-25 00:00:00 Temperatura 26.4 del 24-03-2000 18:00, Mayor que la Máxima 26.0 25-03-2000 00:00 26.4 -- 26.0 2023-12-29 03:02:00
2 2000-03-26 00:00:00 Temperatura 25.8 del 25-03-2000 18:00, Mayor que la Máxima 25.6 26-03-2000 00:00 25.8 -- 25.6 2023-12-29 03:02:00
2 2000-03-29 00:00:00 Temperatura 28.6 del 28-03-2000 18:00, Mayor que la Máxima 28.2 29-03-2000 00:00 28.6 -- 28.2 2023-12-29 03:02:00
2 2000-03-30 00:00:00 Temperatura 25.8 del 29-03-2000 18:00, Mayor que la Máxima 25.4 30-03-2000 00:00 25.8 -- 25.4 2023-12-29 03:02:00
2 2000-04-01 00:00:00 Temperatura 28.0 del 31-03-2000 18:00, Mayor que la Máxima 27.5 01-04-2000 00:00 28.0 -- 27.5 2023-12-29 03:02:00
2 2000-04-02 00:00:00 Temperatura 28.2 del 01-04-2000 18:00, Mayor que la Máxima 28.0 02-04-2000 00:00 28.2 -- 28.0 2023-12-29 03:02:00
2 2000-04-04 00:00:00 Temperatura 25.4 del 03-04-2000 18:00, Mayor que la Máxima 25.0 04-04-2000 00:00 25.4 -- 25.0 2023-12-29 03:02:00
2 2000-04-05 00:00:00 Temperatura 27.4 del 04-04-2000 18:00, Mayor que la Máxima 27.0 05-04-2000 00:00 27.4 -- 27.0 2023-12-29 03:02:00
2 2000-04-06 00:00:00 Temperatura 26.4 del 05-04-2000 18:00, Mayor que la Máxima 26.0 06-04-2000 00:00 26.4 -- 26.0 2023-12-29 03:02:00
2 2000-04-08 00:00:00 Temperatura 25.0 del 07-04-2000 18:00, Mayor que la Máxima 24.0 08-04-2000 00:00 25.0 -- 24.0 2023-12-29 03:03:00
2 2000-04-09 00:00:00 Temperatura 27.0 del 08-04-2000 18:00, Mayor que la Máxima 25.0 09-04-2000 00:00 27.0 -- 25.0 2023-12-29 03:03:00
2 2000-04-10 00:00:00 Temperatura 27.2 del 09-04-2000 18:00, Mayor que la Máxima 26.0 10-04-2000 00:00 27.2 -- 26.0 2023-12-29 03:03:00
2 2000-04-11 00:00:00 Temperatura 31.2 del 10-04-2000 18:00, Mayor que la Máxima 30.0 11-04-2000 00:00 31.2 -- 30.0 2023-12-29 03:03:00
2 2000-04-13 00:00:00 Temperatura 21.2 del 12-04-2000 18:00, Mayor que la Máxima 21.0 13-04-2000 00:00 21.2 -- 21.0 2023-12-29 03:03:00
2 2000-04-15 00:00:00 Temperatura 16.6 del 14-04-2000 18:00, Mayor que la Máxima 15.0 15-04-2000 00:00 16.6 -- 15.0 2023-12-29 03:03:00
2 2000-04-16 00:00:00 Temperatura 19.2 del 15-04-2000 18:00, Mayor que la Máxima 19.0 16-04-2000 00:00 19.2 -- 19.0 2023-12-29 03:03:00
2 2000-04-18 00:00:00 Temperatura 22.4 del 17-04-2000 18:00, Mayor que la Máxima 22.0 18-04-2000 00:00 22.4 -- 22.0 2023-12-29 03:03:00
2 2000-04-19 00:00:00 Temperatura 26.4 del 18-04-2000 18:00, Mayor que la Máxima 24.0 19-04-2000 00:00 26.4 -- 24.0 2023-12-29 03:03:00
2 2000-04-20 00:00:00 Temperatura 22.6 del 19-04-2000 18:00, Mayor que la Máxima 22.0 20-04-2000 00:00 22.6 -- 22.0 2023-12-29 03:03:00
2 2000-04-21 00:00:00 Temperatura 23.6 del 20-04-2000 18:00, Mayor que la Máxima 22.0 21-04-2000 00:00 23.6 -- 22.0 2023-12-29 03:03:00
2 2000-04-23 00:00:00 Temperatura 29.2 del 22-04-2000 18:00, Mayor que la Máxima 28.0 23-04-2000 00:00 29.2 -- 28.0 2023-12-29 03:03:00
2 2000-04-24 00:00:00 Temperatura 25.2 del 23-04-2000 18:00, Mayor que la Máxima 25.0 24-04-2000 00:00 25.2 -- 25.0 2023-12-29 03:03:00
2 2000-04-26 00:00:00 Temperatura 21.2 del 25-04-2000 18:00, Mayor que la Máxima 20.0 26-04-2000 00:00 21.2 -- 20.0 2023-12-29 03:03:00
2 2000-04-27 00:00:00 Temperatura 25.0 del 26-04-2000 18:00, Mayor que la Máxima 24.0 27-04-2000 00:00 25.0 -- 24.0 2023-12-29 03:03:00
2 2000-05-01 00:00:00 Temperatura 24.8 del 30-04-2000 18:00, Mayor que la Máxima 24.0 01-05-2000 00:00 24.8 -- 24.0 2023-12-29 03:03:00
2 2000-05-02 00:00:00 Temperatura 18.4 del 01-05-2000 18:00, Mayor que la Máxima 18.0 02-05-2000 00:00 18.4 -- 18.0 2023-12-29 03:03:00
2 2000-05-03 00:00:00 Temperatura 19.2 del 02-05-2000 18:00, Mayor que la Máxima 19.0 03-05-2000 00:00 19.2 -- 19.0 2023-12-29 03:03:00
2 2000-05-07 00:00:00 Temperatura 27.4 del 06-05-2000 18:00, Mayor que la Máxima 27.0 07-05-2000 00:00 27.4 -- 27.0 2023-12-29 03:03:00
2 2000-05-08 00:00:00 Temperatura 24.6 del 07-05-2000 18:00, Mayor que la Máxima 24.0 08-05-2000 00:00 24.6 -- 24.0 2023-12-29 03:03:00
2 2000-05-16 00:00:00 Temperatura 15.4 del 15-05-2000 18:00, Mayor que la Máxima 15.0 16-05-2000 00:00 15.4 -- 15.0 2023-12-29 03:03:00
2 2000-05-17 00:00:00 Temperatura 23.4 del 16-05-2000 18:00, Mayor que la Máxima 23.0 17-05-2000 00:00 23.4 -- 23.0 2023-12-29 03:03:00
2 2000-05-18 00:00:00 Temperatura 23.2 del 17-05-2000 18:00, Mayor que la Máxima 23.0 18-05-2000 00:00 23.2 -- 23.0 2023-12-29 03:03:00
2 2000-05-19 00:00:00 Temperatura 17.8 del 18-05-2000 18:00, Mayor que la Máxima 17.0 19-05-2000 00:00 17.8 -- 17.0 2023-12-29 03:03:00
2 2000-05-28 00:00:00 Temperatura 23.6 del 27-05-2000 18:00, Mayor que la Máxima 23.0 28-05-2000 00:00 23.6 -- 23.0 2023-12-29 03:03:00
2 2000-05-30 00:00:00 Temperatura 22.6 del 29-05-2000 18:00, Mayor que la Máxima 21.0 30-05-2000 00:00 22.6 -- 21.0 2023-12-29 03:03:00
2 2000-05-31 00:00:00 Temperatura 21.6 del 30-05-2000 18:00, Mayor que la Máxima 21.0 31-05-2000 00:00 21.6 -- 21.0 2023-12-29 03:03:00
2 2000-06-01 00:00:00 Temperatura 15.8 del 31-05-2000 18:00, Mayor que la Máxima 15.0 01-06-2000 00:00 15.8 -- 15.0 2023-12-29 03:03:00
2 2000-06-05 00:00:00 Temperatura 22.2 del 04-06-2000 18:00, Mayor que la Máxima 22.0 05-06-2000 00:00 22.2 -- 22.0 2023-12-29 03:03:00
2 2000-06-06 00:00:00 Temperatura 20.4 del 05-06-2000 18:00, Mayor que la Máxima 20.0 06-06-2000 00:00 20.4 -- 20.0 2023-12-29 03:03:00
2 2000-06-10 00:00:00 Temperatura 17.2 del 09-06-2000 18:00, Mayor que la Máxima 12.0 10-06-2000 00:00 17.2 -- 12.0 2023-12-29 03:03:00
2 2000-06-11 00:00:00 Temperatura 22.8 del 10-06-2000 18:00, Mayor que la Máxima 22.0 11-06-2000 00:00 22.8 -- 22.0 2023-12-29 03:03:00
2 2000-06-12 00:00:00 Temperatura 20.6 del 11-06-2000 18:00, Mayor que la Máxima 20.0 12-06-2000 00:00 20.6 -- 20.0 2023-12-29 03:03:00
2 2000-06-13 00:00:00 Temperatura 12.0 del 12-06-2000 18:00, Mayor que la Máxima 11.2 13-06-2000 00:00 12.0 -- 11.2 2023-12-29 03:03:00
2 2000-06-14 00:00:00 Temperatura 19.2 del 13-06-2000 18:00, Mayor que la Máxima 18.0 14-06-2000 00:00 19.2 -- 18.0 2023-12-29 03:03:00
2 2000-06-16 00:00:00 Temperatura 12.6 del 15-06-2000 18:00, Mayor que la Máxima 12.0 16-06-2000 00:00 12.6 -- 12.0 2023-12-29 03:03:00
2 2000-06-17 00:00:00 Temperatura 18.4 del 17-06-2000 00:00, Mayor que la Máxima 13.0 17-06-2000 00:00 18.4 -- 13.0 2023-12-29 03:03:00
2 2000-06-18 00:00:00 Temperatura 14.0 del 17-06-2000 18:00, Mayor que la Máxima 12.0 18-06-2000 00:00 14.0 -- 12.0 2023-12-29 03:03:00
2 2000-06-19 00:00:00 Temperatura 13.8 del 18-06-2000 18:00, Mayor que la Máxima 12.0 19-06-2000 00:00 13.8 -- 12.0 2023-12-29 03:03:00
2 2000-06-23 00:00:00 Temperatura 20.2 del 22-06-2000 18:00, Mayor que la Máxima 19.0 23-06-2000 00:00 20.2 -- 19.0 2023-12-29 03:03:00
2 2000-06-24 00:00:00 Temperatura 13.6 del 23-06-2000 18:00, Mayor que la Máxima 12.0 24-06-2000 00:00 13.6 -- 12.0 2023-12-29 03:03:00
2 2000-06-26 00:00:00 Temperatura 13.2 del 25-06-2000 18:00, Mayor que la Máxima 12.6 26-06-2000 00:00 13.2 -- 12.6 2023-12-29 03:03:00
2 2000-06-27 00:00:00 Temperatura 15.2 del 26-06-2000 18:00, Mayor que la Máxima 15.0 27-06-2000 00:00 15.2 -- 15.0 2023-12-29 03:03:00
2 2000-06-29 00:00:00 Temperatura 12.0 del 28-06-2000 18:00, Mayor que la Máxima 11.0 29-06-2000 00:00 12.0 -- 11.0 2023-12-29 03:03:00
2 2000-07-01 00:00:00 Temperatura 18.6 del 30-06-2000 18:00, Mayor que la Máxima 18.2 01-07-2000 00:00 18.6 -- 18.2 2023-12-29 03:03:00
2 2000-07-03 00:00:00 Temperatura 17.0 del 02-07-2000 18:00, Mayor que la Máxima 16.9 03-07-2000 00:00 17.0 -- 16.9 2023-12-29 03:03:00
2 2000-07-09 00:00:00 Temperatura 10.7 del 08-07-2000 18:00, Mayor que la Máxima 10.2 09-07-2000 00:00 10.7 -- 10.2 2023-12-29 03:03:00
2 2000-07-11 00:00:00 Temperatura 10.2 del 10-07-2000 18:00, Mayor que la Máxima 10.0 11-07-2000 00:00 10.2 -- 10.0 2023-12-29 03:03:00
2 2000-07-14 00:00:00 Temperatura 26.0 del 13-07-2000 18:00, Mayor que la Máxima 22.0 14-07-2000 00:00 26.0 -- 22.0 2023-12-29 03:03:00
2 2000-07-18 00:00:00 Temperatura 17.6 del 17-07-2000 18:00, Mayor que la Máxima 17.0 18-07-2000 00:00 17.6 -- 17.0 2023-12-29 03:03:00
2 2000-07-21 00:00:00 Temperatura 17.0 del 20-07-2000 18:00, Mayor que la Máxima 16.0 21-07-2000 00:00 17.0 -- 16.0 2023-12-29 03:03:00
2 2000-07-25 00:00:00 Temperatura 22.8 del 24-07-2000 18:00, Mayor que la Máxima 22.0 25-07-2000 00:00 22.8 -- 22.0 2023-12-29 03:03:00
2 2000-07-28 00:00:00 Temperatura 25.2 del 27-07-2000 18:00, Mayor que la Máxima 22.0 28-07-2000 00:00 25.2 -- 22.0 2023-12-29 03:03:00
2 2000-07-30 00:00:00 Temperatura 28.0 del 29-07-2000 18:00, Mayor que la Máxima 18.0 30-07-2000 00:00 28.0 -- 18.0 2023-12-29 03:03:00
2 2000-07-31 00:00:00 Temperatura 24.2 del 30-07-2000 18:00, Mayor que la Máxima 23.5 31-07-2000 00:00 24.2 -- 23.5 2023-12-29 03:03:00
2 2000-08-08 00:00:00 Temperatura 24.1 del 07-08-2000 18:00, Mayor que la Máxima 24.0 08-08-2000 00:00 24.1 -- 24.0 2023-12-29 03:03:00
2 2000-08-23 00:00:00 Temperatura 18.1 del 22-08-2000 18:00, Mayor que la Máxima 18.0 23-08-2000 00:00 18.1 -- 18.0 2023-12-29 03:03:00
2 2000-08-24 00:00:00 Temperatura 18.2 del 23-08-2000 18:00, Mayor que la Máxima 18.0 24-08-2000 00:00 18.2 -- 18.0 2023-12-29 03:03:00
2 2000-08-27 00:00:00 Temperatura 16.4 del 26-08-2000 18:00, Mayor que la Máxima 16.0 27-08-2000 00:00 16.4 -- 16.0 2023-12-29 03:03:00
2 2000-08-30 00:00:00 Temperatura 24.8 del 29-08-2000 18:00, Mayor que la Máxima 24.0 30-08-2000 00:00 24.8 -- 24.0 2023-12-29 03:03:00
2 2000-09-01 00:00:00 Temperatura 20.3 del 31-08-2000 18:00, Mayor que la Máxima 20.0 01-09-2000 00:00 20.3 -- 20.0 2023-12-29 03:03:00
2 2000-09-03 00:00:00 Temperatura 24.6 del 02-09-2000 18:00, Mayor que la Máxima 24.0 03-09-2000 00:00 24.6 -- 24.0 2023-12-29 03:03:00
2 2000-09-04 00:00:00 Temperatura 20.4 del 03-09-2000 18:00, Mayor que la Máxima 13.0 04-09-2000 00:00 20.4 -- 13.0 2023-12-29 03:03:00
2 2000-09-06 00:00:00 Temperatura 20.6 del 05-09-2000 18:00, Mayor que la Máxima 20.2 06-09-2000 00:00 20.6 -- 20.2 2023-12-29 03:03:00
2 2000-09-07 00:00:00 Temperatura 23.2 del 06-09-2000 18:00, Mayor que la Máxima 23.0 07-09-2000 00:00 23.2 -- 23.0 2023-12-29 03:03:00
2 2000-09-09 00:00:00 Temperatura 21.8 del 08-09-2000 18:00, Mayor que la Máxima 21.0 09-09-2000 00:00 21.8 -- 21.0 2023-12-29 03:03:00
2 2000-09-12 00:00:00 Temperatura 14.4 del 11-09-2000 18:00, Mayor que la Máxima 14.0 12-09-2000 00:00 14.4 -- 14.0 2023-12-29 03:03:00
2 2000-09-17 00:00:00 Temperatura 23.8 del 16-09-2000 18:00, Mayor que la Máxima 23.0 17-09-2000 00:00 23.8 -- 23.0 2023-12-29 03:03:00
2 2000-09-18 00:00:00 Temperatura 19.8 del 17-09-2000 18:00, Mayor que la Máxima 19.0 18-09-2000 00:00 19.8 -- 19.0 2023-12-29 03:03:00
2 2000-09-19 00:00:00 Temperatura 20.2 del 18-09-2000 18:00, Mayor que la Máxima 20.0 19-09-2000 00:00 20.2 -- 20.0 2023-12-29 03:03:00
2 2000-09-20 00:00:00 Temperatura 18.4 del 19-09-2000 18:00, Mayor que la Máxima 18.0 20-09-2000 00:00 18.4 -- 18.0 2023-12-29 03:03:00
2 2000-09-24 00:00:00 Temperatura 19.9 del 23-09-2000 18:00, Mayor que la Máxima 19.2 24-09-2000 00:00 19.9 -- 19.2 2023-12-29 03:04:00
2 2000-09-25 00:00:00 Temperatura 23.4 del 24-09-2000 18:00, Mayor que la Máxima 23.0 25-09-2000 00:00 23.4 -- 23.0 2023-12-29 03:04:00
2 2000-09-26 00:00:00 Temperatura 26.1 del 25-09-2000 18:00, Mayor que la Máxima 25.0 26-09-2000 00:00 26.1 -- 25.0 2023-12-29 03:04:00
2 2000-09-27 00:00:00 Temperatura 27.6 del 26-09-2000 18:00, Mayor que la Máxima 26.0 27-09-2000 00:00 27.6 -- 26.0 2023-12-29 03:04:00
2 2000-09-28 00:00:00 Temperatura 16.4 del 27-09-2000 18:00, Mayor que la Máxima 16.0 28-09-2000 00:00 16.4 -- 16.0 2023-12-29 03:04:00
2 2000-09-30 00:00:00 Temperatura 26.4 del 29-09-2000 18:00, Mayor que la Máxima 25.7 30-09-2000 00:00 26.4 -- 25.7 2023-12-29 03:04:00
2 2000-10-01 00:00:00 Temperatura 27.2 del 30-09-2000 18:00, Mayor que la Máxima 27.0 01-10-2000 00:00 27.2 -- 27.0 2023-12-29 03:04:00
2 2000-10-03 00:00:00 Temperatura 18.4 del 02-10-2000 18:00, Mayor que la Máxima 18.0 03-10-2000 00:00 18.4 -- 18.0 2023-12-29 03:04:00
2 2000-10-04 00:00:00 Temperatura 21.4 del 03-10-2000 18:00, Mayor que la Máxima 21.0 04-10-2000 00:00 21.4 -- 21.0 2023-12-29 03:04:00
2 2000-10-05 00:00:00 Temperatura 23.4 del 04-10-2000 18:00, Mayor que la Máxima 23.0 05-10-2000 00:00 23.4 -- 23.0 2023-12-29 03:04:00
2 2000-10-07 00:00:00 Temperatura 26.4 del 06-10-2000 18:00, Mayor que la Máxima 26.0 07-10-2000 00:00 26.4 -- 26.0 2023-12-29 03:04:00
2 2000-10-08 00:00:00 Temperatura 28.1 del 07-10-2000 18:00, Mayor que la Máxima 28.0 08-10-2000 00:00 28.1 -- 28.0 2023-12-29 03:04:00
2 2000-10-10 00:00:00 Temperatura 24.6 del 09-10-2000 18:00, Mayor que la Máxima 23.0 10-10-2000 00:00 24.6 -- 23.0 2023-12-29 03:04:00
2 2000-10-12 00:00:00 Temperatura 24.2 del 11-10-2000 18:00, Mayor que la Máxima 23.0 12-10-2000 00:00 24.2 -- 23.0 2023-12-29 03:04:00
2 2000-10-13 00:00:00 Temperatura 23.3 del 12-10-2000 18:00, Mayor que la Máxima 22.0 13-10-2000 00:00 23.3 -- 22.0 2023-12-29 03:04:00
2 2000-10-14 00:00:00 Temperatura 25.2 del 13-10-2000 18:00, Mayor que la Máxima 24.0 14-10-2000 00:00 25.2 -- 24.0 2023-12-29 03:04:00
2 2000-10-15 00:00:00 Temperatura 23.2 del 14-10-2000 18:00, Mayor que la Máxima 22.0 15-10-2000 00:00 23.2 -- 22.0 2023-12-29 03:04:00
2 2000-10-16 00:00:00 Temperatura 22.4 del 15-10-2000 18:00, Mayor que la Máxima 21.0 16-10-2000 00:00 22.4 -- 21.0 2023-12-29 03:04:00
2 2000-10-18 00:00:00 Temperatura 27.7 del 17-10-2000 18:00, Mayor que la Máxima 27.0 18-10-2000 00:00 27.7 -- 27.0 2023-12-29 03:04:00
2 2000-10-19 00:00:00 Temperatura 31.3 del 18-10-2000 18:00, Mayor que la Máxima 31.0 19-10-2000 00:00 31.3 -- 31.0 2023-12-29 03:04:00
2 2000-10-20 00:00:00 Temperatura 31.3 del 19-10-2000 18:00, Mayor que la Máxima 31.0 20-10-2000 00:00 31.3 -- 31.0 2023-12-29 03:04:00
2 2000-10-25 00:00:00 Temperatura 18.1 del 24-10-2000 18:00, Mayor que la Máxima 17.2 25-10-2000 00:00 18.1 -- 17.2 2023-12-29 03:04:00
2 2000-10-26 00:00:00 Temperatura 19.4 del 25-10-2000 18:00, Mayor que la Máxima 18.5 26-10-2000 00:00 19.4 -- 18.5 2023-12-29 03:04:00
2 2000-10-27 00:00:00 Temperatura 27.4 del 26-10-2000 18:00, Mayor que la Máxima 27.0 27-10-2000 00:00 27.4 -- 27.0 2023-12-29 03:04:00
2 2000-10-29 00:00:00 Temperatura 27.6 del 28-10-2000 18:00, Mayor que la Máxima 26.0 29-10-2000 00:00 27.6 -- 26.0 2023-12-29 03:04:00
2 2000-10-30 00:00:00 Temperatura 26.6 del 29-10-2000 18:00, Mayor que la Máxima 25.0 30-10-2000 00:00 26.6 -- 25.0 2023-12-29 03:04:00
2 2000-11-01 00:00:00 Temperatura 16.0 del 31-10-2000 18:00, Mayor que la Máxima 15.6 01-11-2000 00:00 16.0 -- 15.6 2023-12-29 03:04:00
2 2000-11-05 00:00:00 Temperatura 21.2 del 04-11-2000 18:00, Mayor que la Máxima 21.0 05-11-2000 00:00 21.2 -- 21.0 2023-12-29 03:04:00
2 2000-11-16 00:00:00 Temperatura 24.6 del 15-11-2000 18:00, Mayor que la Máxima 24.0 16-11-2000 00:00 24.6 -- 24.0 2023-12-29 03:04:00
2 2000-11-19 00:00:00 Temperatura 27.4 del 18-11-2000 18:00, Mayor que la Máxima 27.3 19-11-2000 00:00 27.4 -- 27.3 2023-12-29 03:04:00
2 2000-11-20 00:00:00 Temperatura 27.4 del 19-11-2000 18:00, Mayor que la Máxima 27.0 20-11-2000 00:00 27.4 -- 27.0 2023-12-29 03:04:00
2 2000-11-21 00:00:00 Temperatura 30.8 del 20-11-2000 18:00, Mayor que la Máxima 29.9 21-11-2000 00:00 30.8 -- 29.9 2023-12-29 03:04:00
2 2000-11-22 00:00:00 Temperatura 27.4 del 21-11-2000 18:00, Mayor que la Máxima 27.0 22-11-2000 00:00 27.4 -- 27.0 2023-12-29 03:04:00
2 2000-11-25 00:00:00 Temperatura 30.0 del 24-11-2000 18:00, Mayor que la Máxima 29.4 25-11-2000 00:00 30.0 -- 29.4 2023-12-29 03:04:00
2 2000-11-26 00:00:00 Temperatura 31.4 del 25-11-2000 18:00, Mayor que la Máxima 31.0 26-11-2000 00:00 31.4 -- 31.0 2023-12-29 03:04:00
2 2000-11-28 00:00:00 Temperatura 26.0 del 27-11-2000 18:00, Mayor que la Máxima 25.0 28-11-2000 00:00 26.0 -- 25.0 2023-12-29 03:04:00
2 2000-11-29 00:00:00 Temperatura 25.2 del 28-11-2000 18:00, Mayor que la Máxima 24.0 29-11-2000 00:00 25.2 -- 24.0 2023-12-29 03:04:00
2 2000-11-30 00:00:00 Temperatura 27.2 del 29-11-2000 18:00, Mayor que la Máxima 26.9 30-11-2000 00:00 27.2 -- 26.9 2023-12-29 03:04:00
2 2000-12-01 00:00:00 Temperatura 28.0 del 30-11-2000 18:00, Mayor que la Máxima 27.3 01-12-2000 00:00 28.0 -- 27.3 2023-12-29 03:04:00
2 2000-12-02 00:00:00 Temperatura 31.4 del 01-12-2000 18:00, Mayor que la Máxima 30.0 02-12-2000 00:00 31.4 -- 30.0 2023-12-29 03:04:00
2 2000-12-03 00:00:00 Temperatura 29.2 del 02-12-2000 18:00, Mayor que la Máxima 28.0 03-12-2000 00:00 29.2 -- 28.0 2023-12-29 03:04:00
2 2000-12-04 00:00:00 Temperatura 27.0 del 03-12-2000 18:00, Mayor que la Máxima 26.0 04-12-2000 00:00 27.0 -- 26.0 2023-12-29 03:04:00
2 2000-12-05 00:00:00 Temperatura 27.8 del 04-12-2000 18:00, Mayor que la Máxima 27.0 05-12-2000 00:00 27.8 -- 27.0 2023-12-29 03:04:00
2 2000-12-06 00:00:00 Temperatura 26.3 del 05-12-2000 18:00, Mayor que la Máxima 26.0 06-12-2000 00:00 26.3 -- 26.0 2023-12-29 03:04:00
2 2000-12-07 00:00:00 Temperatura 26.3 del 06-12-2000 18:00, Mayor que la Máxima 26.1 07-12-2000 00:00 26.3 -- 26.1 2023-12-29 03:04:00
2 2000-12-08 00:00:00 Temperatura 27.8 del 07-12-2000 18:00, Mayor que la Máxima 27.0 08-12-2000 00:00 27.8 -- 27.0 2023-12-29 03:04:00
2 2000-12-09 00:00:00 Temperatura 30.4 del 08-12-2000 18:00, Mayor que la Máxima 29.5 09-12-2000 00:00 30.4 -- 29.5 2023-12-29 03:04:00
2 2000-12-10 00:00:00 Temperatura 26.8 del 09-12-2000 18:00, Mayor que la Máxima 26.2 10-12-2000 00:00 26.8 -- 26.2 2023-12-29 03:04:00
2 2000-12-11 00:00:00 Temperatura 26.4 del 10-12-2000 18:00, Mayor que la Máxima 24.9 11-12-2000 00:00 26.4 -- 24.9 2023-12-29 03:04:00
2 2000-12-13 00:00:00 Temperatura 29.8 del 12-12-2000 18:00, Mayor que la Máxima 29.6 13-12-2000 00:00 29.8 -- 29.6 2023-12-29 03:04:00
2 2000-12-14 00:00:00 Temperatura 26.2 del 13-12-2000 18:00, Mayor que la Máxima 25.9 14-12-2000 00:00 26.2 -- 25.9 2023-12-29 03:04:00
2 2000-12-16 00:00:00 Temperatura 28.2 del 15-12-2000 18:00, Mayor que la Máxima 28.0 16-12-2000 00:00 28.2 -- 28.0 2023-12-29 03:04:00
2 2000-12-17 00:00:00 Temperatura 30.6 del 16-12-2000 18:00, Mayor que la Máxima 30.0 17-12-2000 00:00 30.6 -- 30.0 2023-12-29 03:04:00
2 2000-12-18 00:00:00 Temperatura 28.3 del 17-12-2000 18:00, Mayor que la Máxima 28.2 18-12-2000 00:00 28.3 -- 28.2 2023-12-29 03:04:00
2 2000-12-26 00:00:00 Temperatura 29.8 del 25-12-2000 18:00, Mayor que la Máxima 28.0 26-12-2000 00:00 29.8 -- 28.0 2023-12-29 03:04:00
2 2000-12-27 00:00:00 Temperatura 27.2 del 26-12-2000 18:00, Mayor que la Máxima 25.0 27-12-2000 00:00 27.2 -- 25.0 2023-12-29 03:04:00
2 2000-12-28 00:00:00 Temperatura 26.2 del 27-12-2000 18:00, Mayor que la Máxima 24.0 28-12-2000 00:00 26.2 -- 24.0 2023-12-29 03:04:00
2 2000-12-29 00:00:00 Temperatura 26.0 del 28-12-2000 18:00, Mayor que la Máxima 25.0 29-12-2000 00:00 26.0 -- 25.0 2023-12-29 03:04:00
2 2000-12-30 00:00:00 Temperatura 27.3 del 29-12-2000 18:00, Mayor que la Máxima 25.9 30-12-2000 00:00 27.3 -- 25.9 2023-12-29 03:04:00
2 2000-12-31 00:00:00 Temperatura 26.2 del 30-12-2000 18:00, Mayor que la Máxima 25.0 31-12-2000 00:00 26.2 -- 25.0 2023-12-29 03:04:00
2 2001-01-01 00:00:00 Temperatura 28.0 del 31-12-2000 18:00, Mayor que la Máxima 26.0 01-01-2001 00:00 28.0 -- 26.0 2023-12-29 03:04:00
2 2001-02-18 00:00:00 Temperatura 29.6 del 17-02-2001 18:00, Mayor que la Máxima 29.0 18-02-2001 00:00 29.6 -- 29.0 2023-12-29 03:04:00
2 2001-07-21 00:00:00 Temperatura 16.8 del 20-07-2001 18:00, Mayor que la Máxima 14.2 21-07-2001 00:00 16.8 -- 14.2 2023-12-29 03:05:00
2 2001-07-31 00:00:00 Temperatura 10.6 del 31-07-2001 00:00, Mayor que la Máxima 10.4 31-07-2001 00:00 10.6 -- 10.4 2023-12-29 03:05:00
2 2001-08-14 00:00:00 Temperatura 19.3 del 13-08-2001 18:00, Mayor que la Máxima 19.2 14-08-2001 00:00 19.3 -- 19.2 2023-12-29 03:05:00
2 2001-11-23 00:00:00 Temperatura 25.0 del 22-11-2001 18:00, Mayor que la Máxima 24.8 23-11-2001 00:00 25.0 -- 24.8 2023-12-29 03:06:00
2 2001-12-15 00:00:00 Temperatura 29.4 del 14-12-2001 18:00, Mayor que la Máxima 25.6 15-12-2001 00:00 29.4 -- 25.6 2023-12-29 03:06:00
2 2002-02-11 00:00:00 Temperatura 26.4 del 10-02-2002 18:00, Mayor que la Máxima 26.0 11-02-2002 00:00 26.4 -- 26.0 2023-12-29 03:06:00
2 2002-02-18 00:00:00 Temperatura 28.0 del 17-02-2002 18:00, Mayor que la Máxima 27.4 18-02-2002 00:00 28.0 -- 27.4 2023-12-29 03:06:00
2 2002-02-23 00:00:00 Temperatura 29.6 del 22-02-2002 18:00, Mayor que la Máxima 29.4 23-02-2002 00:00 29.6 -- 29.4 2023-12-29 03:06:00
2 2002-03-26 00:00:00 Temperatura 29.2 del 25-03-2002 18:00, Mayor que la Máxima 28.8 26-03-2002 00:00 29.2 -- 28.8 2023-12-29 03:07:00
2 2002-04-03 00:00:00 Temperatura 26.2 del 02-04-2002 18:00, Mayor que la Máxima 26.0 03-04-2002 00:00 26.2 -- 26.0 2023-12-29 03:07:00
2 2002-04-30 00:00:00 Temperatura 24.2 del 29-04-2002 18:00, Mayor que la Máxima 23.8 30-04-2002 00:00 24.2 -- 23.8 2023-12-29 03:07:00
2 2002-05-03 00:00:00 Temperatura 27.2 del 02-05-2002 18:00, Mayor que la Máxima 27.0 03-05-2002 00:00 27.2 -- 27.0 2023-12-29 03:07:00
2 2002-05-06 00:00:00 Temperatura 30.6 del 05-05-2002 18:00, Mayor que la Máxima 30.4 06-05-2002 00:00 30.6 -- 30.4 2023-12-29 03:07:00
2 2002-06-08 00:00:00 Temperatura 16.6 del 07-06-2002 18:00, Mayor que la Máxima 12.8 08-06-2002 00:00 16.6 -- 12.8 2023-12-29 03:07:00
2 2002-08-02 00:00:00 Temperatura 19.4 del 01-08-2002 18:00, Mayor que la Máxima 19.2 02-08-2002 00:00 19.4 -- 19.2 2023-12-29 03:07:00
2 2002-09-29 00:00:00 Temperatura 26.8 del 28-09-2002 18:00, Mayor que la Máxima 26.4 29-09-2002 00:00 26.8 -- 26.4 2023-12-29 03:08:00
2 2002-10-06 00:00:00 Temperatura 24.8 del 05-10-2002 18:00, Mayor que la Máxima 24.4 06-10-2002 00:00 24.8 -- 24.4 2023-12-29 03:08:00
2 2002-11-29 00:00:00 Temperatura 26.4 del 28-11-2002 18:00, Mayor que la Máxima 23.0 29-11-2002 00:00 26.4 -- 23.0 2023-12-29 03:08:00
2 2009-03-23 00:00:00 Temperatura 27.6 del 22-03-2009 18:00, Mayor que la Máxima 27.4 23-03-2009 00:00 27.6 -- 27.4 2023-12-31 00:47:00
2 2009-03-25 00:00:00 Temperatura 27.9 del 24-03-2009 18:00, Mayor que la Máxima 27.8 25-03-2009 00:00 27.9 -- 27.8 2023-12-31 00:47:00
2 2009-03-26 00:00:00 Temperatura 28.4 del 25-03-2009 19:00, Mayor que la Máxima 28.2 26-03-2009 00:00 28.4 -- 28.2 2023-12-31 00:47:00
2 2009-03-27 00:00:00 Temperatura 28.3 del 26-03-2009 19:00, Mayor que la Máxima 28.2 27-03-2009 00:00 28.3 -- 28.2 2023-12-31 00:47:00
2 2009-03-28 00:00:00 Temperatura 29.6 del 27-03-2009 19:00, Mayor que la Máxima 29.0 28-03-2009 00:00 29.6 -- 29.0 2023-12-31 00:47:00
2 2009-04-01 00:00:00 Temperatura 31.5 del 31-03-2009 18:00, Mayor que la Máxima 31.4 01-04-2009 00:00 31.5 -- 31.4 2023-12-31 00:47:00
2 1999-11-01 12:00:00 Temperatura 11.2 del 01-11-1999 12:00, Menor que la Mínima 11.6 01-11-1999 12:00 11.2 -- 11.6 2023-12-29 03:02:00
2 1999-11-02 12:00:00 Temperatura 11.6 del 02-11-1999 12:00, Menor que la Mínima 11.8 02-11-1999 12:00 11.6 -- 11.8 2023-12-29 03:02:00
2 1999-11-05 12:00:00 Temperatura 15.2 del 05-11-1999 12:00, Menor que la Mínima 15.6 05-11-1999 12:00 15.2 -- 15.6 2023-12-29 03:02:00
2 1999-11-06 12:00:00 Temperatura 14.4 del 06-11-1999 12:00, Menor que la Mínima 14.6 06-11-1999 12:00 14.4 -- 14.6 2023-12-29 03:02:00
2 1999-11-22 12:00:00 Temperatura 15.0 del 22-11-1999 12:00, Menor que la Mínima 15.4 22-11-1999 12:00 15.0 -- 15.4 2023-12-29 03:02:00
2 1999-11-23 12:00:00 Temperatura 12.0 del 23-11-1999 12:00, Menor que la Mínima 12.2 23-11-1999 12:00 12.0 -- 12.2 2023-12-29 03:02:00
2 1999-11-24 12:00:00 Temperatura 12.0 del 24-11-1999 12:00, Menor que la Mínima 13.4 24-11-1999 12:00 12.0 -- 13.4 2023-12-29 03:02:00
2 1999-11-26 12:00:00 Temperatura 11.6 del 26-11-1999 12:00, Menor que la Mínima 11.8 26-11-1999 12:00 11.6 -- 11.8 2023-12-29 03:02:00
2 2000-03-27 12:00:00 Temperatura 8.8 del 27-03-2000 12:00, Menor que la Mínima 9.2 27-03-2000 12:00 8.8 -- 9.2 2023-12-29 03:02:00
2 2000-05-05 12:00:00 Temperatura -8.0 del 05-05-2000 12:00, Menor que la Mínima -0.4 05-05-2000 12:00 -8.0 -- -0.4 2023-12-29 03:03:00
2 2000-12-20 12:00:00 Temperatura 15.6 del 20-12-2000 12:00, Menor que la Mínima 16.4 20-12-2000 12:00 15.6 -- 16.4 2023-12-29 03:04:00
2 2001-06-03 12:00:00 Temperatura 4.9 del 03-06-2001 12:00, Menor que la Mínima 5.0 03-06-2001 12:00 4.9 -- 5.0 2023-12-29 03:05:00
2 2001-06-11 12:00:00 Temperatura 8.6 del 11-06-2001 12:00, Menor que la Mínima 8.8 11-06-2001 12:00 8.6 -- 8.8 2023-12-29 03:05:00
2 2001-06-16 12:00:00 Temperatura 3.2 del 16-06-2001 12:00, Menor que la Mínima 4.0 16-06-2001 12:00 3.2 -- 4.0 2023-12-29 03:05:00
2 2001-06-29 12:00:00 Temperatura 3.8 del 29-06-2001 12:00, Menor que la Mínima 4.8 29-06-2001 12:00 3.8 -- 4.8 2023-12-29 03:05:00
2 2001-07-01 12:00:00 Temperatura 7.0 del 01-07-2001 12:00, Menor que la Mínima 7.2 01-07-2001 12:00 7.0 -- 7.2 2023-12-29 03:05:00
2 2001-07-20 12:00:00 Temperatura 3.6 del 20-07-2001 12:00, Menor que la Mínima 3.8 20-07-2001 12:00 3.6 -- 3.8 2023-12-29 03:05:00
2 2001-07-24 12:00:00 Temperatura 2.3 del 24-07-2001 12:00, Menor que la Mínima 2.4 24-07-2001 12:00 2.3 -- 2.4 2023-12-29 03:05:00
2 2001-08-05 12:00:00 Temperatura 6.4 del 05-08-2001 12:00, Menor que la Mínima 6.6 05-08-2001 12:00 6.4 -- 6.6 2023-12-29 03:05:00
2 2001-08-09 12:00:00 Temperatura 2.4 del 09-08-2001 12:00, Menor que la Mínima 3.4 09-08-2001 12:00 2.4 -- 3.4 2023-12-29 03:05:00
2 2001-08-13 12:00:00 Temperatura 3.8 del 13-08-2001 12:00, Menor que la Mínima 4.2 13-08-2001 12:00 3.8 -- 4.2 2023-12-29 03:05:00
2 2001-10-18 12:00:00 Temperatura 11.2 del 18-10-2001 12:00, Menor que la Mínima 11.4 18-10-2001 12:00 11.2 -- 11.4 2023-12-29 03:06:00
2 2002-04-18 12:00:00 Temperatura 4.4 del 18-04-2002 12:00, Menor que la Mínima 4.6 18-04-2002 12:00 4.4 -- 4.6 2023-12-29 03:07:00
2 2002-04-26 12:00:00 Temperatura 3.2 del 26-04-2002 12:00, Menor que la Mínima 3.4 26-04-2002 12:00 3.2 -- 3.4 2023-12-29 03:07:00
2 2002-05-30 12:00:00 Temperatura 5.8 del 30-05-2002 12:00, Menor que la Mínima 6.0 30-05-2002 12:00 5.8 -- 6.0 2023-12-29 03:07:00
2 2002-06-24 12:00:00 Temperatura 5.6 del 24-06-2002 12:00, Menor que la Mínima 6.0 24-06-2002 12:00 5.6 -- 6.0 2023-12-29 03:07:00
2 2002-06-27 12:00:00 Temperatura 5.8 del 27-06-2002 12:00, Menor que la Mínima 6.0 27-06-2002 12:00 5.8 -- 6.0 2023-12-29 03:07:00
2 2002-07-11 12:00:00 Temperatura 3.8 del 11-07-2002 12:00, Menor que la Mínima 4.0 11-07-2002 12:00 3.8 -- 4.0 2023-12-29 03:07:00
2 2002-07-18 12:00:00 Temperatura 4.2 del 18-07-2002 12:00, Menor que la Mínima 4.6 18-07-2002 12:00 4.2 -- 4.6 2023-12-29 03:07:00
2 2002-08-20 12:00:00 Temperatura -0.6 del 20-08-2002 12:00, Menor que la Mínima -0.4 20-08-2002 12:00 -0.6 -- -0.4 2023-12-29 03:07:00
Errores del Nivel 209
Informe generado el 23-02-2024 11:27
Requerimiento: RE6001